Bookmark and Share
Track history (hours):
 

Emirates Star

Last reported at 2014-Apr-11 16:14 UTC. Time now 2014-Apr-17 18:36 UTC.
Position N 29°21' W 094°47'.

Length 183 m; draft 11.5 m.

Type: Ship. MMSI: 565886000.

NotesDate/timePositionNaut miles runAvg speedWind from/ knotsBaromVisibWave heightAir tempDewpointWater temp
2014-Apr-11 16:14N 29°21' W 094°47'812.1
2014-Apr-11 15:33N 29°29' W 094°51'1111.1
2014-Apr-11 14:33N 29°38' W 094°58'8 7.7
2014-Apr-11 13:33N 29°44' W 095°03'5 5.1
2014-Apr-11 12:33N 29°44' W 095°09'4 3.2
2014-Apr-11 11:24N 29°44' W 095°13'0 0.0
2014-Apr-10 20:27N 29°44' W 095°13'0 0.0
2014-Apr-10 19:33N 29°44' W 095°13'0 0.0
2014-Apr-10 18:33N 29°44' W 095°13'0 0.0
2014-Apr-10 17:33N 29°44' W 095°13'0 0.0
2014-Apr-10 16:33N 29°44' W 095°13'0 0.0
2014-Apr-10 15:33N 29°44' W 095°13'0 0.0
2014-Apr-10 14:33N 29°44' W 095°13'0 0.0
2014-Apr-10 13:33N 29°44' W 095°13'0 0.0
2014-Apr-10 12:33N 29°44' W 095°13'0 0.0
2014-Apr-10 11:33N 29°44' W 095°13'0 0.0
2014-Apr-10 10:33N 29°44' W 095°13'0 0.0
2014-Apr-10 09:21N 29°44' W 095°13'0 0.0
2014-Apr-10 08:27N 29°44' W 095°13'0 0.0
2014-Apr-10 07:30N 29°44' W 095°13'0 0.0
2014-Apr-10 06:30N 29°44' W 095°13'0 0.0
2014-Apr-10 05:27N 29°44' W 095°13'0 0.0
2014-Apr-10 04:27N 29°44' W 095°13'0 0.0
2014-Apr-10 03:33N 29°44' W 095°13'0 0.0
2014-Apr-10 02:30N 29°44' W 095°13'0 0.0
2014-Apr-10 01:21N 29°44' W 095°13'0 0.0
2014-Apr-10 00:33N 29°44' W 095°13'0 0.0
2014-Apr-09 23:33N 29°44' W 095°13'0 0.0
2014-Apr-09 22:27N 29°44' W 095°13'0 0.0
2014-Apr-09 21:33N 29°44' W 095°13'0 0.0
2014-Apr-09 20:33N 29°44' W 095°13'0 0.0
2014-Apr-09 19:33N 29°44' W 095°13'0 0.0
2014-Apr-09 18:18N 29°44' W 095°13'0 0.0
2014-Apr-09 17:33N 29°44' W 095°13'0 0.0
2014-Apr-09 16:30N 29°44' W 095°13'0 0.0
2014-Apr-09 15:33N 29°44' W 095°13'0 0.0
2014-Apr-09 14:33N 29°44' W 095°13'0 0.0
2014-Apr-09 13:33N 29°44' W 095°13'0 0.0
2014-Apr-09 12:33N 29°44' W 095°13'0 0.0
2014-Apr-09 09:15N 29°44' W 095°13'0 0.0
2014-Apr-09 08:33N 29°44' W 095°13'0 0.0
2014-Apr-09 06:33N 29°44' W 095°13'0 0.0
2014-Apr-09 05:33N 29°44' W 095°13'0 0.0
2014-Apr-09 03:20N 29°44' W 095°13'3 3.8
2014-Apr-09 02:26N 29°44' W 095°09'5 5.7
2014-Apr-09 01:33N 29°44' W 095°03'10 9.5
2014-Apr-09 00:33N 29°36' W 094°57'1212.0
2014-Apr-08 23:33N 29°26' W 094°50'1110.8
2014-Apr-08 22:33N 29°20' W 094°40'  
2014-Apr-01 23:27N 29°09' W 094°42'  

Dump ship's entire track history

sailing weather and tide predictions

Emirates Star — 9VLH5 — position and weather